createdAt,value
2019-03-27T00:02:18.996Z,5.02
2019-03-27T00:04:50.324Z,5.00
2019-03-27T00:07:22.852Z,4.93
2019-03-27T00:09:54.167Z,4.84
2019-03-27T00:12:25.428Z,4.80
2019-03-27T00:14:56.769Z,4.78
2019-03-27T00:17:28.417Z,4.73
2019-03-27T00:19:59.823Z,4.73
2019-03-27T00:22:31.371Z,4.78
2019-03-27T00:25:02.967Z,4.73
2019-03-27T00:27:34.295Z,4.65
2019-03-27T00:30:09.177Z,4.64
2019-03-27T00:32:40.506Z,4.59
2019-03-27T00:35:12.954Z,4.51
2019-03-27T00:37:44.340Z,4.44
2019-03-27T00:40:15.620Z,4.36
2019-03-27T00:42:46.945Z,4.35
2019-03-27T00:45:26.419Z,4.47
2019-03-27T00:47:51.553Z,4.58
2019-03-27T00:50:22.960Z,4.60
2019-03-27T00:52:54.568Z,4.55
2019-03-27T00:55:25.875Z,4.40
2019-03-27T00:57:57.575Z,4.49
2019-03-27T01:00:41.417Z,4.52
2019-03-27T01:03:12.816Z,4.45
2019-03-27T01:05:44.208Z,4.49
2019-03-27T01:08:15.784Z,4.37
2019-03-27T01:10:47.527Z,4.38
2019-03-27T01:13:18.990Z,4.28
2019-03-27T01:15:50.928Z,4.17
2019-03-27T01:18:22.265Z,4.10
2019-03-27T01:20:53.593Z,4.03
2019-03-27T01:23:24.878Z,4.02
2019-03-27T01:25:56.181Z,3.93
2019-03-27T01:28:27.491Z,3.90
2019-03-27T01:30:58.944Z,3.84
2019-03-27T01:33:30.249Z,3.80
2019-03-27T01:36:01.649Z,3.75
2019-03-27T01:38:33.148Z,3.74
2019-03-27T01:41:04.604Z,3.75
2019-03-27T01:43:35.818Z,3.73
2019-03-27T01:46:07.177Z,3.73
2019-03-27T01:48:38.547Z,3.69
2019-03-27T01:51:09.793Z,3.66
2019-03-27T01:53:41.120Z,3.73
2019-03-27T01:56:15.881Z,3.73
2019-03-27T01:58:50.415Z,3.77
2019-03-27T02:01:21.870Z,3.79
2019-03-27T02:03:53.335Z,3.79
2019-03-27T02:06:24.954Z,3.79
2019-03-27T02:08:56.695Z,3.71
2019-03-27T02:11:28.053Z,3.64
2019-03-27T02:14:00.515Z,3.60
2019-03-27T02:16:31.906Z,3.57
2019-03-27T02:19:03.624Z,3.50
2019-03-27T02:21:34.910Z,3.54
2019-03-27T02:24:06.341Z,3.63
2019-03-27T02:26:37.815Z,3.59
2019-03-27T02:29:09.358Z,3.59
2019-03-27T02:31:40.909Z,3.44
2019-03-27T02:34:13.570Z,3.41
2019-03-27T02:36:45.303Z,3.33
2019-03-27T02:39:16.620Z,3.29
2019-03-27T02:41:48.004Z,3.33
2019-03-27T02:44:19.417Z,3.24
2019-03-27T02:46:50.746Z,3.32
2019-03-27T02:49:22.210Z,3.21
2019-03-27T02:51:53.665Z,3.20
2019-03-27T02:54:25.229Z,3.13
2019-03-27T02:56:56.627Z,3.10
2019-03-27T02:59:27.944Z,3.05
2019-03-27T03:01:59.255Z,3.01
2019-03-27T03:04:31.165Z,3.05
2019-03-27T03:07:02.521Z,2.99
2019-03-27T03:09:33.996Z,2.97
2019-03-27T03:12:05.296Z,2.99
2019-03-27T03:14:36.672Z,3.02
2019-03-27T03:17:08.412Z,3.06
2019-03-27T03:19:39.794Z,3.10
2019-03-27T03:22:11.083Z,3.06
2019-03-27T03:24:42.334Z,2.98
2019-03-27T03:27:14.694Z,3.01
2019-03-27T03:29:47.446Z,3.07
2019-03-27T03:32:19.850Z,3.19
2019-03-27T03:34:51.481Z,3.26
2019-03-27T03:37:22.871Z,3.35
2019-03-27T03:39:54.228Z,3.39
2019-03-27T03:42:25.555Z,3.36
2019-03-27T03:44:57.448Z,3.36
2019-03-27T03:47:28.943Z,3.42
2019-03-27T03:50:01.200Z,3.48
2019-03-27T03:52:32.535Z,3.52
2019-03-27T03:55:04.355Z,3.66
2019-03-27T03:57:37.131Z,3.82
2019-03-27T04:00:08.875Z,4.02
2019-03-27T04:02:40.479Z,4.11
2019-03-27T04:05:16.114Z,4.16
2019-03-27T04:07:47.585Z,4.24
2019-03-27T04:10:19.387Z,4.30
2019-03-27T04:12:50.864Z,4.37
2019-03-27T04:15:22.285Z,4.39
2019-03-27T04:17:53.957Z,4.48
2019-03-27T04:20:26.292Z,4.53
2019-03-27T04:22:57.601Z,4.54
2019-03-27T04:26:06.427Z,4.62
2019-03-27T04:28:05.603Z,4.63
2019-03-27T04:30:37.007Z,4.76
2019-03-27T04:33:12.103Z,4.86
2019-03-27T04:35:43.662Z,5.00
2019-03-27T04:38:14.962Z,5.14
2019-03-27T04:40:46.330Z,5.24
2019-03-27T04:43:17.887Z,5.49
2019-03-27T04:45:49.437Z,5.69
2019-03-27T04:48:20.963Z,5.77
2019-03-27T04:50:53.309Z,6.10
2019-03-27T04:53:24.680Z,6.02
2019-03-27T04:55:56.078Z,6.13
2019-03-27T04:58:29.940Z,6.26
2019-03-27T05:01:02.470Z,6.49
2019-03-27T05:03:34.156Z,6.61
2019-03-27T05:06:05.746Z,6.75
2019-03-27T05:08:37.049Z,6.91
2019-03-27T05:11:08.589Z,6.95
2019-03-27T05:13:40.165Z,7.29
2019-03-27T05:16:11.438Z,7.31
2019-03-27T05:18:43.147Z,7.06
2019-03-27T05:21:14.821Z,7.00
2019-03-27T05:23:46.654Z,7.38
2019-03-27T05:26:18.252Z,7.04
2019-03-27T05:28:49.556Z,7.20
2019-03-27T05:31:20.978Z,7.56
2019-03-27T05:33:52.341Z,8.73
2019-03-27T05:36:23.954Z,8.90
2019-03-27T05:38:55.248Z,8.87
2019-03-27T05:41:26.548Z,8.89
2019-03-27T05:43:58.117Z,9.02
2019-03-27T05:46:29.414Z,8.89
2019-03-27T05:49:00.916Z,10.22
2019-03-27T05:51:32.248Z,10.37
2019-03-27T05:54:03.868Z,10.27
2019-03-27T05:56:36.179Z,10.80
2019-03-27T05:59:07.501Z,11.53
2019-03-27T06:01:38.925Z,11.65
2019-03-27T06:04:10.257Z,13.78
2019-03-27T06:06:41.704Z,13.52
2019-03-27T06:09:13.122Z,12.75
2019-03-27T06:11:44.491Z,16.09
2019-03-27T06:14:15.787Z,15.97
2019-03-27T06:16:48.135Z,16.29
2019-03-27T06:19:19.523Z,14.09
2019-03-27T06:21:50.835Z,14.52
2019-03-27T06:24:22.335Z,15.26
2019-03-27T06:26:54.754Z,14.64
2019-03-27T06:29:26.246Z,14.13
2019-03-27T06:31:57.614Z,17.51
2019-03-27T06:34:29.127Z,15.31
2019-03-27T06:37:00.502Z,15.17
2019-03-27T06:39:31.875Z,15.33
2019-03-27T06:42:03.230Z,17.52
2019-03-27T06:44:35.540Z,16.25
2019-03-27T06:47:06.914Z,16.39
2019-03-27T06:49:38.682Z,16.19
2019-03-27T06:52:10.043Z,15.96
2019-03-27T06:54:41.494Z,16.38
2019-03-27T06:57:12.980Z,16.59
2019-03-27T06:59:44.370Z,17.40
2019-03-27T07:02:17.693Z,17.29
2019-03-27T07:04:49.295Z,17.21
2019-03-27T07:07:21.068Z,20.13
2019-03-27T07:09:52.464Z,17.65
2019-03-27T07:12:23.861Z,17.50
2019-03-27T07:14:55.350Z,17.30
2019-03-27T07:17:26.799Z,17.91
2019-03-27T07:19:58.143Z,14.31
2019-03-27T07:22:29.964Z,13.04
2019-03-27T07:25:06.884Z,14.00
2019-03-27T07:27:38.132Z,14.45
2019-03-27T07:30:10.729Z,13.48
2019-03-27T07:32:42.496Z,14.51
2019-03-27T07:35:13.909Z,15.28
2019-03-27T07:37:50.777Z,14.66
2019-03-27T07:40:25.486Z,14.31
2019-03-27T07:43:01.354Z,13.94
2019-03-27T07:48:53.189Z,15.52
2019-03-27T07:51:15.887Z,16.01
2019-03-27T07:53:47.834Z,14.86
2019-03-27T07:56:19.367Z,13.99
2019-03-27T07:58:51.761Z,12.94
2019-03-27T08:01:28.340Z,12.18
2019-03-27T08:04:01.097Z,12.37
2019-03-27T08:06:37.471Z,12.26
2019-03-27T08:09:08.988Z,12.19
2019-03-27T08:11:42.443Z,12.06
2019-03-27T08:14:13.869Z,12.23
2019-03-27T08:16:45.294Z,12.28
2019-03-27T08:19:16.726Z,12.92
2019-03-27T08:21:48.307Z,12.53
2019-03-27T08:24:19.749Z,12.27
2019-03-27T08:26:51.367Z,12.24
2019-03-27T08:29:22.901Z,12.38
2019-03-27T08:31:55.319Z,12.11
2019-03-27T08:34:27.158Z,11.34
2019-03-27T08:36:58.533Z,11.19
2019-03-27T08:39:31.249Z,11.11
2019-03-27T08:42:03.487Z,10.49
2019-03-27T08:44:35.297Z,10.45
2019-03-27T08:47:06.923Z,10.53
2019-03-27T08:49:38.340Z,10.57
2019-03-27T08:52:11.695Z,10.53
2019-03-27T08:54:42.925Z,10.16
2019-03-27T08:57:15.520Z,10.58
2019-03-27T08:59:46.773Z,10.77
2019-03-27T09:02:18.019Z,10.77
2019-03-27T09:04:51.365Z,10.85
2019-03-27T09:07:23.797Z,10.71
2019-03-27T09:09:55.499Z,11.13
2019-03-27T09:12:26.865Z,10.82
2019-03-27T09:14:58.188Z,11.63
2019-03-27T09:17:29.450Z,10.94
2019-03-27T09:20:01.920Z,11.43
2019-03-27T09:22:33.136Z,11.28
2019-03-27T09:25:05.872Z,10.76
2019-03-27T09:27:37.383Z,10.32
2019-03-27T09:30:13.232Z,10.48
2019-03-27T09:32:44.948Z,10.24
2019-03-27T09:35:18.279Z,10.24
2019-03-27T09:37:50.712Z,10.54
2019-03-27T09:40:21.969Z,10.83
2019-03-27T09:42:54.002Z,10.53
2019-03-27T09:45:25.328Z,10.49
2019-03-27T09:47:56.884Z,10.45
2019-03-27T09:50:29.281Z,10.52
2019-03-27T09:53:00.730Z,10.60
2019-03-27T09:55:32.393Z,10.76
2019-03-27T09:58:03.743Z,10.98
2019-03-27T10:00:55.442Z,11.13
2019-03-27T10:03:26.951Z,11.28
2019-03-27T10:05:58.795Z,11.64
2019-03-27T10:08:30.368Z,11.87
2019-03-27T10:11:02.072Z,11.66
2019-03-27T10:13:34.490Z,11.50
2019-03-27T10:16:05.855Z,11.56
2019-03-27T10:18:37.163Z,11.42
2019-03-27T10:21:08.647Z,11.48
2019-03-27T10:23:43.567Z,11.55
2019-03-27T10:26:14.320Z,11.32
2019-03-27T10:28:45.536Z,11.28
2019-03-27T10:31:17.157Z,11.23
2019-03-27T10:33:48.592Z,11.01
2019-03-27T10:36:20.133Z,11.02
2019-03-27T10:38:51.568Z,10.90
2019-03-27T10:41:22.808Z,11.17
2019-03-27T10:43:54.160Z,10.58
2019-03-27T10:46:25.388Z,10.18
2019-03-27T10:48:59.872Z,10.14
2019-03-27T10:51:31.303Z,10.02
2019-03-27T10:54:02.654Z,10.09
2019-03-27T10:56:35.138Z,10.26
2019-03-27T10:59:06.558Z,10.27
2019-03-27T11:01:41.757Z,10.32
2019-03-27T11:04:13.296Z,10.88
2019-03-27T11:06:48.194Z,10.67
2019-03-27T11:09:19.848Z,10.39
2019-03-27T11:11:51.708Z,10.39
2019-03-27T11:14:36.886Z,10.55
2019-03-27T11:16:56.439Z,10.51
2019-03-27T11:19:33.579Z,10.55
2019-03-27T11:22:05.041Z,10.64
2019-03-27T11:24:36.686Z,10.37
2019-03-27T11:27:08.208Z,10.52
2019-03-27T11:29:39.620Z,10.43
2019-03-27T11:32:11.086Z,10.47
2019-03-27T11:34:42.591Z,10.21
2019-03-27T11:37:17.758Z,9.94
2019-03-27T11:39:48.767Z,10.17
2019-03-27T11:42:19.831Z,10.37
2019-03-27T11:44:51.400Z,10.47
2019-03-27T11:47:24.732Z,10.13
2019-03-27T11:50:00.480Z,10.34
2019-03-27T11:52:38.704Z,10.24
2019-03-27T11:55:10.617Z,10.30
2019-03-27T11:57:42.121Z,10.48
2019-03-27T12:00:13.719Z,10.26
2019-03-27T12:02:47.078Z,10.48
2019-03-27T12:05:20.250Z,10.31
2019-03-27T12:07:51.822Z,9.99
2019-03-27T12:10:23.209Z,9.61
2019-03-27T12:12:54.524Z,9.56
2019-03-27T12:15:29.177Z,9.66
2019-03-27T12:18:00.484Z,9.57
2019-03-27T12:20:34.858Z,9.38
2019-03-27T12:23:06.191Z,9.53
2019-03-27T12:25:37.606Z,9.47
2019-03-27T12:28:17.707Z,9.29
2019-03-27T12:30:50.098Z,9.02
2019-03-27T12:33:22.356Z,8.86
2019-03-27T12:35:54.366Z,8.64
2019-03-27T12:38:27.139Z,8.60
2019-03-27T12:41:00.710Z,8.52
2019-03-27T12:43:32.262Z,7.86
2019-03-27T12:46:09.540Z,7.86
2019-03-27T12:48:41.750Z,7.26
2019-03-27T12:51:13.557Z,7.26
2019-03-27T12:53:45.137Z,7.31
2019-03-27T12:56:16.766Z,7.31
2019-03-27T12:58:53.501Z,7.25
2019-03-27T13:01:24.883Z,7.12
2019-03-27T13:03:59.702Z,7.16
2019-03-27T13:06:31.119Z,6.92
2019-03-27T13:09:02.807Z,6.56
2019-03-27T13:11:36.852Z,6.11
2019-03-27T13:14:09.965Z,5.83
2019-03-27T13:16:41.550Z,5.83
2019-03-27T13:19:14.691Z,5.64
2019-03-27T13:21:47.397Z,5.77
2019-03-27T13:24:19.000Z,5.47
2019-03-27T13:26:50.408Z,5.19
2019-03-27T13:29:21.889Z,5.43
2019-03-27T13:31:54.409Z,5.54
2019-03-27T13:34:26.280Z,5.74
2019-03-27T13:36:57.740Z,5.76
2019-03-27T13:39:29.117Z,5.63
2019-03-27T13:42:03.522Z,5.81
2019-03-27T13:44:37.702Z,5.58
2019-03-27T13:47:08.723Z,5.72
2019-03-27T13:49:40.715Z,5.71
2019-03-27T13:52:12.165Z,5.77
2019-03-27T13:54:45.685Z,5.67
2019-03-27T13:57:17.259Z,5.65
2019-03-27T13:59:48.869Z,5.36
2019-03-27T14:02:21.268Z,5.35
2019-03-27T14:04:52.717Z,5.45
2019-03-27T14:07:24.068Z,5.48
2019-03-27T14:09:57.212Z,5.53
2019-03-27T14:12:29.116Z,5.34
2019-03-27T14:15:00.801Z,5.11
2019-03-27T14:17:32.268Z,5.32
2019-03-27T14:20:04.289Z,5.28
2019-03-27T14:22:35.886Z,5.18
2019-03-27T14:25:08.943Z,5.18
2019-03-27T14:27:45.216Z,5.26
2019-03-27T14:30:18.598Z,5.29
2019-03-27T14:32:51.008Z,5.23
2019-03-27T14:35:22.562Z,5.08
2019-03-27T14:37:54.126Z,4.99
2019-03-27T14:40:27.204Z,5.00
2019-03-27T14:42:58.703Z,4.96
2019-03-27T14:45:31.198Z,4.88
2019-03-27T14:48:05.440Z,4.86
2019-03-27T14:50:37.062Z,4.77
2019-03-27T14:53:09.972Z,4.43
2019-03-27T14:55:42.658Z,4.39
2019-03-27T14:58:15.375Z,4.24
2019-03-27T15:00:46.691Z,4.02
2019-03-27T15:03:20.380Z,3.70
2019-03-27T15:05:52.597Z,3.78
2019-03-27T15:08:27.789Z,3.84
2019-03-27T15:10:59.221Z,3.99
2019-03-27T15:13:32.081Z,3.61
2019-03-27T15:16:04.915Z,3.62
2019-03-27T15:18:37.348Z,3.53
2019-03-27T15:21:09.818Z,3.35
2019-03-27T15:23:41.687Z,3.36
2019-03-27T15:26:20.740Z,3.28
2019-03-27T15:28:52.334Z,3.26
2019-03-27T15:31:25.688Z,3.14
2019-03-27T15:33:57.111Z,3.02
2019-03-27T15:36:28.647Z,3.05
2019-03-27T15:39:02.098Z,3.03
2019-03-27T15:41:34.597Z,2.99
2019-03-27T15:44:08.444Z,2.89
2019-03-27T15:46:40.061Z,2.70
2019-03-27T15:49:11.497Z,2.46
2019-03-27T15:51:47.368Z,2.51
2019-03-27T15:54:18.959Z,2.45
2019-03-27T15:56:50.779Z,2.30
2019-03-27T15:59:22.431Z,2.18
2019-03-27T16:01:54.121Z,2.16
2019-03-27T16:04:25.609Z,1.89
2019-03-27T16:06:57.080Z,2.00
2019-03-27T16:09:40.457Z,2.01
2019-03-27T16:12:08.836Z,2.05
2019-03-27T16:14:40.467Z,1.89
2019-03-27T16:17:13.655Z,2.00
2019-03-27T16:19:45.593Z,2.07
2019-03-27T16:22:16.942Z,1.99
2019-03-27T16:27:38.989Z,1.84
2019-03-27T16:30:10.556Z,1.94
2019-03-27T16:32:43.037Z,1.97
2019-03-27T16:35:14.435Z,1.78
2019-03-27T16:37:45.839Z,1.63
2019-03-27T16:40:20.419Z,1.81
2019-03-27T16:42:51.855Z,1.85
2019-03-27T16:45:23.212Z,1.79
2019-03-27T16:47:56.194Z,1.85
2019-03-27T16:50:27.653Z,1.80
2019-03-27T16:53:03.695Z,1.80
2019-03-27T16:55:32.236Z,1.92
2019-03-27T16:58:04.025Z,1.78
2019-03-27T17:00:37.914Z,1.75
2019-03-27T17:03:09.389Z,1.91
2019-03-27T17:05:53.349Z,1.84
2019-03-27T17:08:18.334Z,1.79
2019-03-27T17:10:52.964Z,1.77
2019-03-27T17:13:28.812Z,1.73
2019-03-27T17:16:19.378Z,1.53
2019-03-27T17:18:57.513Z,1.81
2019-03-27T17:21:29.177Z,1.64
2019-03-27T17:24:00.978Z,1.51
2019-03-27T17:26:32.748Z,1.59
2019-03-27T17:29:04.158Z,1.54
2019-03-27T17:31:38.576Z,1.31
2019-03-27T17:34:17.120Z,1.22
2019-03-27T17:36:55.369Z,1.26
2019-03-27T17:39:30.599Z,1.24
2019-03-27T17:42:08.934Z,1.32
2019-03-27T17:44:41.858Z,1.17
2019-03-27T17:47:21.111Z,1.44
2019-03-27T17:49:52.812Z,1.41
2019-03-27T17:52:26.607Z,1.31
2019-03-27T17:54:59.720Z,1.22
2019-03-27T17:57:31.050Z,1.33
2019-03-27T18:00:02.445Z,1.28
2019-03-27T18:02:36.563Z,1.29
2019-03-27T18:05:10.144Z,1.34
2019-03-27T18:07:42.111Z,1.39
2019-03-27T18:10:13.514Z,1.35
2019-03-27T18:12:45.251Z,1.34
2019-03-27T18:15:17.815Z,1.36
2019-03-27T18:17:49.470Z,1.17
2019-03-27T18:20:21.978Z,1.32
2019-03-27T18:22:53.742Z,1.44
2019-03-27T18:25:25.373Z,1.62
2019-03-27T18:27:58.571Z,1.36
2019-03-27T18:30:31.871Z,1.34
2019-03-27T18:33:06.276Z,1.26
2019-03-27T18:35:37.719Z,1.53
2019-03-27T18:38:09.449Z,1.62
2019-03-27T18:40:41.132Z,1.73
2019-03-27T18:43:14.050Z,1.78
2019-03-27T18:45:45.679Z,1.69
2019-03-27T18:48:17.118Z,1.83
2019-03-27T18:50:48.739Z,1.75
2019-03-27T18:53:20.282Z,1.69
2019-03-27T18:55:51.845Z,1.79
2019-03-27T18:58:23.215Z,1.60
2019-03-27T19:00:55.907Z,1.52
2019-03-27T19:03:27.639Z,1.70
2019-03-27T19:05:59.255Z,1.61
2019-03-27T19:08:31.012Z,1.76
2019-03-27T19:11:02.766Z,1.74
2019-03-27T19:13:34.152Z,1.67
2019-03-27T19:16:06.002Z,1.69
2019-03-27T19:18:38.023Z,1.68
2019-03-27T19:21:13.928Z,1.73
2019-03-27T19:23:46.986Z,1.73
2019-03-27T19:26:19.552Z,1.77
2019-03-27T19:28:53.865Z,1.68
2019-03-27T19:31:26.612Z,1.49
2019-03-27T19:33:59.490Z,1.42
2019-03-27T19:36:30.892Z,1.47
2019-03-27T19:39:02.818Z,1.74
2019-03-27T19:41:36.084Z,1.75
2019-03-27T19:44:07.668Z,1.87
2019-03-27T19:46:40.154Z,1.71
2019-03-27T19:49:11.597Z,1.75
2019-03-27T19:51:43.229Z,1.81
2019-03-27T19:54:26.414Z,1.75
2019-03-27T19:56:48.085Z,1.75
2019-03-27T19:59:19.733Z,1.78
2019-03-27T20:01:51.790Z,1.83
2019-03-27T20:04:23.392Z,1.76
2019-03-27T20:06:54.694Z,1.85
2019-03-27T20:09:27.101Z,1.89
2019-03-27T20:11:58.922Z,1.86
2019-03-27T20:14:31.622Z,1.90
2019-03-27T20:17:02.990Z,1.85
2019-03-27T20:19:35.451Z,1.75
2019-03-27T20:22:06.845Z,1.89
2019-03-27T20:24:41.359Z,1.94
2019-03-27T20:27:13.030Z,1.75
2019-03-27T20:29:46.541Z,1.93
2019-03-27T20:32:17.974Z,1.86
2019-03-27T20:34:49.735Z,1.93
2019-03-27T20:37:21.180Z,1.97
2019-03-27T20:39:52.772Z,2.01
2019-03-27T20:42:25.133Z,1.96
2019-03-27T20:44:56.890Z,2.05
2019-03-27T20:47:28.598Z,1.98
2019-03-27T20:49:59.946Z,2.05
2019-03-27T20:52:32.267Z,2.07
2019-03-27T20:55:05.308Z,1.95
2019-03-27T20:57:36.684Z,1.94
2019-03-27T21:00:07.988Z,1.88
2019-03-27T21:02:39.508Z,1.93
2019-03-27T21:05:10.735Z,1.95
2019-03-27T21:07:41.983Z,1.86
2019-03-27T21:10:13.328Z,1.86
2019-03-27T21:12:44.677Z,1.85
2019-03-27T21:15:15.905Z,1.83
2019-03-27T21:17:47.233Z,1.76
2019-03-27T21:20:18.553Z,1.88
2019-03-27T21:22:49.822Z,1.89
2019-03-27T21:25:21.103Z,1.87
2019-03-27T21:27:52.479Z,1.87
2019-03-27T21:30:23.805Z,1.84
2019-03-27T21:32:55.164Z,1.86
2019-03-27T21:35:26.530Z,1.77
2019-03-27T21:37:57.874Z,1.80
2019-03-27T21:40:29.339Z,1.76
2019-03-27T21:43:00.728Z,1.73
2019-03-27T21:45:33.183Z,1.71
2019-03-27T21:48:04.657Z,1.71
2019-03-27T21:50:39.731Z,1.78
2019-03-27T21:53:11.261Z,1.72
2019-03-27T21:55:43.333Z,1.67
2019-03-27T21:58:20.681Z,1.61
2019-03-27T22:00:55.468Z,1.60
2019-03-27T22:03:27.773Z,1.69
2019-03-27T22:05:59.145Z,1.58
2019-03-27T22:08:30.485Z,1.57
2019-03-27T22:11:04.176Z,1.55
2019-03-27T22:13:35.832Z,1.55
2019-03-27T22:16:07.216Z,1.61
2019-03-27T22:18:38.678Z,1.62
2019-03-27T22:21:09.919Z,1.58
2019-03-27T22:23:42.157Z,1.55
2019-03-27T22:26:14.467Z,1.56
2019-03-27T22:28:45.813Z,1.48
2019-03-27T22:31:17.253Z,1.61
2019-03-27T22:33:51.681Z,1.50
2019-03-27T22:36:22.838Z,1.58
2019-03-27T22:38:54.131Z,1.72
2019-03-27T22:41:25.992Z,1.54
2019-03-27T22:43:58.305Z,1.55
2019-03-27T22:46:31.037Z,1.72
2019-03-27T22:49:02.322Z,1.78
2019-03-27T22:51:33.632Z,1.51
2019-03-27T22:54:05.017Z,1.60
2019-03-27T22:56:36.301Z,1.42
2019-03-27T22:59:07.585Z,1.44
2019-03-27T23:01:44.658Z,1.38
2019-03-27T23:04:15.908Z,1.43
2019-03-27T23:06:47.204Z,1.38
2019-03-27T23:09:18.499Z,1.44
2019-03-27T23:11:49.797Z,1.44
2019-03-27T23:14:21.120Z,1.56
2019-03-27T23:16:52.438Z,1.47
2019-03-27T23:19:23.776Z,1.42
2019-03-27T23:21:56.148Z,1.35
2019-03-27T23:24:27.462Z,1.33
2019-03-27T23:26:58.766Z,1.72
2019-03-27T23:29:30.060Z,1.68
2019-03-27T23:32:01.435Z,1.95
2019-03-27T23:34:32.753Z,1.74
2019-03-27T23:37:04.058Z,2.01
2019-03-27T23:39:35.369Z,1.63
2019-03-27T23:42:06.698Z,1.85
2019-03-27T23:44:38.019Z,1.89
2019-03-27T23:47:09.317Z,1.63
2019-03-27T23:49:40.757Z,1.56
2019-03-27T23:52:12.316Z,2.04
2019-03-27T23:54:43.536Z,1.67
2019-03-27T23:57:14.838Z,1.70
2019-03-27T23:59:46.159Z,1.51
